Time;durP1;ratioP1;P1;durP2;ratioP2;P2;SDS_P1;SDS_P2;PMS_P1;PMS_P2;Temp;Humidity;BMP_temperature;BMP_pressure;BME280_temperature;BME280_humidity;BME280_pressure;Samples;Min_cycle;Max_cycle;Signal;HPM_P1;HPM_P2
2023/03/23 00:00:44;;;;;;;7.27;4.33;;;;;;;;;;5002540;28;20189;-83
2023/03/23 00:03:11;;;;;;;6.23;4.03;;;;;;;;;;4980628;28;20193;-84
2023/03/23 00:05:40;;;;;;;7.30;4.53;;;;;;;;;;5013785;28;20192;-84
2023/03/23 00:08:08;;;;;;;8.23;4.60;;;;;;;;;;5025997;28;20236;-85
2023/03/23 00:10:35;;;;;;;9.23;4.03;;;;;;;;;;5010440;28;20193;-81
2023/03/23 00:13:02;;;;;;;8.03;4.43;;;;;;;;;;5014631;28;20193;-81
2023/03/23 00:15:32;;;;;;;7.60;4.60;;;;;;;;;;5012345;28;20213;-80
2023/03/23 00:18:02;;;;;;;6.73;4.27;;;;;;;;;;5015946;28;20182;-80
2023/03/23 00:20:40;;;;;;;5.77;3.80;;;;;;;;;;4994848;28;20184;-80
2023/03/23 00:23:06;;;;;;;6.87;4.40;;;;;;;;;;4979658;28;20196;-80
2023/03/23 00:25:33;;;;;;;6.53;4.17;;;;;;;;;;5012351;28;20186;-81
2023/03/23 00:28:00;;;;;;;6.93;4.07;;;;;;;;;;5013662;28;20200;-78
2023/03/23 00:30:26;;;;;;;5.87;4.20;;;;;;;;;;4981373;28;20189;-78
2023/03/23 00:32:52;;;;;;;6.67;4.33;;;;;;;;;;4996580;28;20196;-78
2023/03/23 00:35:19;;;;;;;8.40;4.10;;;;;;;;;;4969710;28;20186;-78
2023/03/23 00:37:45;;;;;;;6.77;4.50;;;;;;;;;;4978027;28;20185;-78
2023/03/23 00:40:12;;;;;;;6.33;4.37;;;;;;;;;;4980137;28;20197;-78
2023/03/23 00:42:38;;;;;;;4.97;3.97;;;;;;;;;;4980261;28;20180;-78
2023/03/23 00:45:10;;;;;;;7.20;4.00;;;;;;;;;;5009498;28;20227;-78
2023/03/23 00:47:36;;;;;;;5.97;3.80;;;;;;;;;;5000768;28;20192;-79
2023/03/23 00:50:05;;;;;;;5.80;4.33;;;;;;;;;;5012624;28;20239;-78
2023/03/23 00:52:31;;;;;;;6.40;4.10;;;;;;;;;;4979167;28;20223;-78
2023/03/23 00:54:57;;;;;;;7.17;4.10;;;;;;;;;;4979844;28;20193;-78
2023/03/23 00:57:26;;;;;;;4.83;4.10;;;;;;;;;;4996105;28;20223;-78
2023/03/23 00:59:52;;;;;;;6.37;4.33;;;;;;;;;;4996557;28;20213;-78
2023/03/23 01:02:19;;;;;;;10.87;4.20;;;;;;;;;;4980271;28;20213;-78
2023/03/23 01:04:45;;;;;;;5.57;3.83;;;;;;;;;;5012589;28;20191;-78
2023/03/23 01:07:17;;;;;;;8.57;4.75;;;;;;;;;;5011686;28;20419;-78
2023/03/23 01:09:44;;;;;;;7.35;4.97;;;;;;;;;;4969010;28;20423;-78
2023/03/23 01:12:10;;;;;;;8.30;4.80;;;;;;;;;;5000195;28;20188;-78
2023/03/23 01:14:37;;;;;;;5.77;4.40;;;;;;;;;;5013485;28;20182;-78
2023/03/23 01:17:03;;;;;;;6.72;4.70;;;;;;;;;;5004393;28;20442;-84
2023/03/23 01:19:29;;;;;;;5.72;4.47;;;;;;;;;;4982698;28;20429;-84
2023/03/23 01:21:55;;;;;;;7.70;5.22;;;;;;;;;;4991338;28;20428;-84
2023/03/23 01:24:21;;;;;;;7.40;4.70;;;;;;;;;;4999001;28;20413;-84
2023/03/23 01:26:48;;;;;;;6.68;5.00;;;;;;;;;;4983359;28;20430;-84
2023/03/23 01:29:14;;;;;;;6.50;4.80;;;;;;;;;;4984160;28;20498;-84
2023/03/23 01:31:42;;;;;;;5.93;4.80;;;;;;;;;;4983659;28;20415;-84
2023/03/23 01:34:08;;;;;;;6.50;4.47;;;;;;;;;;4978421;28;20437;-81
2023/03/23 01:36:35;;;;;;;5.25;4.47;;;;;;;;;;5019727;28;20541;-80
2023/03/23 01:39:03;;;;;;;6.22;4.60;;;;;;;;;;4999420;28;20426;-81
2023/03/23 01:41:29;;;;;;;5.72;4.60;;;;;;;;;;4983210;28;20431;-81
2023/03/23 01:43:55;;;;;;;5.57;4.10;;;;;;;;;;5017366;28;20212;-81
2023/03/23 01:46:22;;;;;;;6.43;4.40;;;;;;;;;;5015411;28;20429;-81
2023/03/23 01:48:49;;;;;;;5.55;4.45;;;;;;;;;;4998665;28;20431;-81
2023/03/23 01:51:17;;;;;;;6.10;4.00;;;;;;;;;;5016020;28;20248;-79
2023/03/23 01:53:48;;;;;;;7.53;4.60;;;;;;;;;;5016200;28;20418;-79
2023/03/23 01:56:15;;;;;;;5.57;3.87;;;;;;;;;;4999353;28;20471;-78
2023/03/23 01:58:41;;;;;;;6.43;4.23;;;;;;;;;;5015882;28;20173;-78
2023/03/23 02:01:11;;;;;;;5.77;4.17;;;;;;;;;;4983828;28;20185;-78
2023/03/23 02:03:38;;;;;;;6.20;4.20;;;;;;;;;;4999562;28;20185;-78
2023/03/23 02:06:04;;;;;;;4.50;4.07;;;;;;;;;;5015907;28;20276;-78
2023/03/23 02:08:32;;;;;;;5.80;4.33;;;;;;;;;;4999287;28;20185;-78
2023/03/23 02:10:58;;;;;;;8.60;4.67;;;;;;;;;;4983241;28;20200;-78
2023/03/23 02:13:25;;;;;;;5.82;4.53;;;;;;;;;;5012742;28;20424;-78
2023/03/23 02:16:04;;;;;;;5.13;4.63;;;;;;;;;;4983134;28;20235;-78
2023/03/23 02:18:49;;;;;;;5.67;4.47;;;;;;;;;;4998518;28;20255;-78
2023/03/23 02:21:32;;;;;;;7.10;4.13;;;;;;;;;;5013687;28;20192;-78
2023/03/23 02:24:18;;;;;;;6.57;4.53;;;;;;;;;;5010469;28;20224;-78
2023/03/23 02:26:48;;;;;;;6.70;4.37;;;;;;;;;;4979305;28;20219;-78
2023/03/23 02:29:32;;;;;;;6.93;4.60;;;;;;;;;;4995028;28;20188;-79
2023/03/23 02:32:12;;;;;;;5.73;4.37;;;;;;;;;;4992953;28;20243;-79
2023/03/23 02:34:43;;;;;;;7.83;4.83;;;;;;;;;;5009665;28;20271;-78
2023/03/23 02:37:13;;;;;;;5.17;4.00;;;;;;;;;;5007376;28;20221;-78
2023/03/23 02:39:42;;;;;;;4.90;4.20;;;;;;;;;;5007565;28;20200;-78
2023/03/23 02:42:13;;;;;;;5.37;4.30;;;;;;;;;;5003129;28;20185;-78
2023/03/23 02:44:41;;;;;;;6.00;4.57;;;;;;;;;;5009081;28;20249;-78
2023/03/23 02:47:09;;;;;;;5.83;4.70;;;;;;;;;;5006539;28;20198;-78
2023/03/23 02:49:37;;;;;;;6.43;4.37;;;;;;;;;;5008064;28;20299;-78
2023/03/23 02:52:06;;;;;;;5.97;4.23;;;;;;;;;;4992750;28;20229;-78
2023/03/23 02:54:32;;;;;;;5.50;4.50;;;;;;;;;;5007920;28;20193;-78
2023/03/23 02:56:58;;;;;;;5.47;4.07;;;;;;;;;;5008758;28;20221;-81
2023/03/23 02:59:24;;;;;;;4.30;3.90;;;;;;;;;;4991020;28;20268;-81
2023/03/23 03:02:11;;;;;;;4.80;4.20;;;;;;;;;;4976434;28;20209;-81
2023/03/23 03:04:40;;;;;;;4.90;4.00;;;;;;;;;;4995112;28;20189;-81
2023/03/23 03:07:07;;;;;;;6.20;4.10;;;;;;;;;;4998223;28;20185;-81
2023/03/23 03:09:55;;;;;;;6.23;3.90;;;;;;;;;;5015004;28;20185;-81
2023/03/23 03:12:26;;;;;;;5.83;4.37;;;;;;;;;;5015583;28;20276;-81
2023/03/23 03:15:12;;;;;;;6.80;4.47;;;;;;;;;;4997862;28;20200;-78
2023/03/23 03:17:43;;;;;;;6.23;4.23;;;;;;;;;;5005407;28;20203;-78
2023/03/23 03:20:11;;;;;;;5.37;4.20;;;;;;;;;;4997824;28;20192;-78
2023/03/23 03:22:38;;;;;;;7.40;4.40;;;;;;;;;;4999410;28;20181;-78
2023/03/23 03:25:06;;;;;;;5.37;4.07;;;;;;;;;;5020465;28;20268;-78
2023/03/23 03:27:32;;;;;;;6.57;4.57;;;;;;;;;;5014609;28;20170;-78
2023/03/23 03:29:59;;;;;;;4.47;4.07;;;;;;;;;;5014119;28;20186;-79
2023/03/23 03:32:30;;;;;;;8.63;4.20;;;;;;;;;;5011137;28;20186;-79
2023/03/23 03:34:57;;;;;;;5.93;4.30;;;;;;;;;;5004566;28;20174;-79
2023/03/23 03:37:24;;;;;;;5.87;4.20;;;;;;;;;;4982361;28;20221;-79
2023/03/23 03:39:50;;;;;;;5.63;4.20;;;;;;;;;;4981359;28;20181;-79
2023/03/23 03:42:17;;;;;;;6.83;4.20;;;;;;;;;;4997773;28;20207;-79
2023/03/23 03:44:43;;;;;;;8.10;4.17;;;;;;;;;;4981571;28;20256;-79
2023/03/23 03:47:09;;;;;;;5.43;4.10;;;;;;;;;;5016404;28;20696;-78
2023/03/23 03:49:35;;;;;;;5.97;4.10;;;;;;;;;;5013990;28;20228;-78
2023/03/23 03:52:01;;;;;;;4.13;3.70;;;;;;;;;;4981653;28;20185;-79
2023/03/23 03:54:27;;;;;;;5.83;4.17;;;;;;;;;;4997162;28;20189;-78
2023/03/23 03:56:57;;;;;;;5.07;4.27;;;;;;;;;;4981112;28;20228;-79
2023/03/23 03:59:23;;;;;;;5.73;4.67;;;;;;;;;;4992016;28;20185;-78
2023/03/23 04:01:53;;;;;;;4.90;4.10;;;;;;;;;;5015134;28;20182;-79
2023/03/23 04:04:20;;;;;;;6.97;4.20;;;;;;;;;;5014712;28;20276;-78
2023/03/23 04:06:48;;;;;;;6.43;4.07;;;;;;;;;;4997270;28;20177;-79
2023/03/23 04:09:15;;;;;;;6.50;4.37;;;;;;;;;;4980994;28;20197;-78
2023/03/23 04:11:41;;;;;;;6.13;4.20;;;;;;;;;;4999225;28;20181;-78
2023/03/23 04:14:07;;;;;;;5.47;4.10;;;;;;;;;;4999793;28;20211;-78
2023/03/23 04:16:34;;;;;;;6.17;4.17;;;;;;;;;;4980661;28;20220;-79
2023/03/23 04:19:00;;;;;;;5.07;4.03;;;;;;;;;;4996104;28;20192;-79
2023/03/23 04:21:28;;;;;;;6.90;4.37;;;;;;;;;;4996758;28;20388;-78
2023/03/23 04:23:54;;;;;;;5.97;4.50;;;;;;;;;;4980884;28;20220;-78
2023/03/23 04:26:21;;;;;;;4.73;4.17;;;;;;;;;;4996566;28;20186;-79
2023/03/23 04:28:50;;;;;;;4.47;3.80;;;;;;;;;;4996964;28;20185;-81
2023/03/23 04:31:16;;;;;;;4.83;3.80;;;;;;;;;;4980892;28;20197;-81
2023/03/23 04:33:42;;;;;;;6.97;4.20;;;;;;;;;;4981083;28;20189;-81
2023/03/23 04:36:08;;;;;;;4.83;4.10;;;;;;;;;;4980946;28;20224;-79
2023/03/23 04:38:34;;;;;;;5.67;3.77;;;;;;;;;;4997206;28;20178;-79
2023/03/23 04:41:01;;;;;;;6.77;3.97;;;;;;;;;;5013930;28;20181;-79
2023/03/23 04:43:27;;;;;;;5.37;3.90;;;;;;;;;;5014363;28;20169;-79
2023/03/23 04:45:57;;;;;;;4.73;3.53;;;;;;;;;;5012031;28;20231;-79
2023/03/23 04:48:24;;;;;;;5.23;4.03;;;;;;;;;;4996391;28;20195;-79
2023/03/23 04:50:51;;;;;;;4.87;3.70;;;;;;;;;;4996277;28;20201;-79
2023/03/23 04:53:17;;;;;;;4.77;3.57;;;;;;;;;;5014071;28;20185;-78
2023/03/23 04:55:44;;;;;;;6.73;3.77;;;;;;;;;;4980289;28;20228;-78
2023/03/23 04:58:12;;;;;;;4.67;3.80;;;;;;;;;;4996187;28;20181;-78
2023/03/23 05:00:38;;;;;;;8.57;3.57;;;;;;;;;;4996448;28;20191;-78
2023/03/23 05:03:07;;;;;;;6.13;3.93;;;;;;;;;;5012756;28;20184;-78
2023/03/23 05:05:34;;;;;;;6.53;3.60;;;;;;;;;;4996796;28;20240;-78
2023/03/23 05:08:00;;;;;;;6.53;3.27;;;;;;;;;;4997353;28;20192;-78
2023/03/23 05:10:26;;;;;;;6.73;3.33;;;;;;;;;;4996179;28;20181;-84
2023/03/23 05:12:53;;;;;;;6.27;3.20;;;;;;;;;;4995898;28;20228;-84
2023/03/23 05:15:19;;;;;;;7.93;3.30;;;;;;;;;;4995408;28;20187;-84
2023/03/23 05:17:45;;;;;;;5.43;3.10;;;;;;;;;;4996125;28;20189;-84
2023/03/23 05:20:13;;;;;;;6.27;3.13;;;;;;;;;;4980414;28;20193;-84
2023/03/23 05:22:39;;;;;;;9.93;3.27;;;;;;;;;;4995894;28;20177;-84
2023/03/23 05:25:08;;;;;;;7.43;3.10;;;;;;;;;;4979234;28;20185;-84
2023/03/23 05:27:35;;;;;;;8.83;2.80;;;;;;;;;;4996116;28;20192;-84
2023/03/23 05:30:01;;;;;;;8.00;2.80;;;;;;;;;;4978806;28;20192;-84
2023/03/23 05:32:28;;;;;;;6.50;2.67;;;;;;;;;;4978561;28;20194;-84
2023/03/23 05:34:56;;;;;;;8.13;2.77;;;;;;;;;;4995562;28;20196;-84
2023/03/23 05:37:22;;;;;;;7.73;3.00;;;;;;;;;;5010926;28;20208;-84
2023/03/23 05:39:48;;;;;;;9.07;3.17;;;;;;;;;;5013222;28;20259;-85
2023/03/23 05:42:14;;;;;;;6.77;2.53;;;;;;;;;;4996241;28;20208;-84
2023/03/23 05:44:41;;;;;;;8.67;2.90;;;;;;;;;;4979946;28;20181;-79
2023/03/23 05:47:07;;;;;;;7.70;2.80;;;;;;;;;;4996056;28;20185;-78
2023/03/23 05:49:36;;;;;;;8.30;2.93;;;;;;;;;;4995962;28;20367;-79
2023/03/23 05:52:02;;;;;;;9.77;3.00;;;;;;;;;;4996613;28;20231;-78
2023/03/23 05:54:28;;;;;;;9.67;2.83;;;;;;;;;;4995808;28;20193;-78
2023/03/23 05:56:54;;;;;;;10.27;3.07;;;;;;;;;;4997554;28;20213;-78
2023/03/23 05:59:20;;;;;;;8.73;2.70;;;;;;;;;;4999701;28;20181;-78
2023/03/23 06:01:46;;;;;;;6.73;2.60;;;;;;;;;;4993744;28;20232;-78
2023/03/23 06:04:13;;;;;;;8.17;2.70;;;;;;;;;;5008763;28;20194;-78
2023/03/23 06:06:41;;;;;;;8.10;2.73;;;;;;;;;;4974068;28;20181;-78
2023/03/23 06:09:07;;;;;;;6.77;2.50;;;;;;;;;;5006813;28;20240;-78
2023/03/23 06:11:36;;;;;;;7.83;2.37;;;;;;;;;;4972816;28;20304;-78
2023/03/23 06:14:02;;;;;;;6.33;2.63;;;;;;;;;;5006180;28;20320;-78
2023/03/23 06:16:29;;;;;;;7.30;2.40;;;;;;;;;;4974566;28;20305;-84
2023/03/23 06:18:56;;;;;;;11.00;2.57;;;;;;;;;;5011741;28;20188;-84
2023/03/23 06:21:22;;;;;;;5.30;2.50;;;;;;;;;;5007670;28;20177;-84
2023/03/23 06:23:49;;;;;;;8.57;2.67;;;;;;;;;;5009527;28;20188;-85
2023/03/23 06:26:18;;;;;;;8.03;2.63;;;;;;;;;;5007294;28;20178;-84
2023/03/23 06:28:44;;;;;;;7.83;2.13;;;;;;;;;;4994087;28;20196;-83
2023/03/23 06:31:11;;;;;;;6.83;2.30;;;;;;;;;;4974300;28;20196;-84
2023/03/23 06:33:37;;;;;;;9.43;2.40;;;;;;;;;;5008515;28;20204;-78
2023/03/23 06:36:04;;;;;;;8.60;2.50;;;;;;;;;;5015882;28;20223;-78
2023/03/23 06:38:31;;;;;;;6.47;2.40;;;;;;;;;;5013706;28;20181;-78
2023/03/23 06:40:57;;;;;;;6.27;2.20;;;;;;;;;;4988848;28;20178;-78
2023/03/23 06:43:24;;;;;;;8.17;2.37;;;;;;;;;;5007940;28;20189;-78
2023/03/23 06:45:50;;;;;;;8.43;2.23;;;;;;;;;;5008379;28;20186;-78
2023/03/23 06:48:17;;;;;;;9.77;2.43;;;;;;;;;;4989440;28;20284;-78
2023/03/23 06:50:44;;;;;;;7.50;2.53;;;;;;;;;;4991969;28;20217;-78
2023/03/23 06:53:10;;;;;;;10.20;2.83;;;;;;;;;;5007047;28;20185;-77
2023/03/23 06:55:37;;;;;;;7.70;2.60;;;;;;;;;;5005286;28;20190;-78
2023/03/23 06:58:05;;;;;;;11.57;2.73;;;;;;;;;;4990909;28;20189;-79
2023/03/23 07:00:31;;;;;;;8.33;2.67;;;;;;;;;;4981467;28;20272;-79
2023/03/23 07:03:00;;;;;;;6.53;2.43;;;;;;;;;;5027592;22;20192;-81
2023/03/23 07:05:27;;;;;;;8.30;2.57;;;;;;;;;;5029466;28;20181;-81
2023/03/23 07:07:53;;;;;;;6.63;2.40;;;;;;;;;;5045454;28;20169;-80
2023/03/23 07:10:20;;;;;;;6.17;2.50;;;;;;;;;;5046925;28;20177;-81
2023/03/23 07:12:46;;;;;;;8.03;2.70;;;;;;;;;;5026458;28;20173;-80
2023/03/23 07:15:12;;;;;;;11.80;2.87;;;;;;;;;;5013400;28;20248;-80
2023/03/23 07:17:39;;;;;;;10.97;2.83;;;;;;;;;;5045503;28;20207;-80
2023/03/23 07:20:06;;;;;;;6.73;2.17;;;;;;;;;;5046857;28;20179;-80
2023/03/23 07:22:32;;;;;;;7.33;2.57;;;;;;;;;;5053558;28;20172;-80
2023/03/23 07:24:59;;;;;;;11.93;2.80;;;;;;;;;;5022091;28;20180;-87
2023/03/23 07:27:25;;;;;;;9.03;3.00;;;;;;;;;;5032535;28;20179;-87
2023/03/23 07:29:51;;;;;;;9.73;3.07;;;;;;;;;;5044217;28;20177;-86
2023/03/23 07:32:17;;;;;;;13.07;3.20;;;;;;;;;;5028618;28;20176;-87
2023/03/23 07:34:43;;;;;;;8.50;2.67;;;;;;;;;;5020075;28;20188;-86
2023/03/23 07:37:10;;;;;;;10.13;3.20;;;;;;;;;;5027604;28;20208;-87
2023/03/23 07:39:36;;;;;;;9.37;3.00;;;;;;;;;;5033113;28;20186;-84
2023/03/23 07:42:02;;;;;;;6.17;2.60;;;;;;;;;;5034389;28;20172;-85
2023/03/23 07:44:28;;;;;;;6.87;2.03;;;;;;;;;;5019595;28;20194;-84
2023/03/23 07:46:54;;;;;;;4.70;2.20;;;;;;;;;;5045983;28;20184;-84
2023/03/23 07:49:20;;;;;;;5.00;2.10;;;;;;;;;;5037810;28;20180;-84
2023/03/23 07:51:47;;;;;;;5.83;2.00;;;;;;;;;;5010661;28;20276;-84
2023/03/23 07:54:14;;;;;;;4.70;2.13;;;;;;;;;;5025358;28;20190;-84
2023/03/23 07:56:41;;;;;;;4.87;2.20;;;;;;;;;;5033985;28;20228;-87
2023/03/23 07:59:07;;;;;;;5.60;2.20;;;;;;;;;;5027886;28;20187;-85
2023/03/23 08:01:34;;;;;;;4.07;1.87;;;;;;;;;;5021783;28;20206;-86
2023/03/23 08:04:00;;;;;;;5.40;2.00;;;;;;;;;;5008958;28;20307;-85
2023/03/23 08:06:26;;;;;;;4.40;1.97;;;;;;;;;;5015994;28;20226;-86
2023/03/23 08:08:52;;;;;;;8.53;2.37;;;;;;;;;;5022575;28;20188;-87
2023/03/23 08:11:19;;;;;;;6.03;2.33;;;;;;;;;;5020179;28;20196;-87
2023/03/23 08:13:46;;;;;;;4.87;2.03;;;;;;;;;;5019264;28;20197;-84
2023/03/23 08:16:13;;;;;;;5.13;2.40;;;;;;;;;;5053272;28;20211;-84
2023/03/23 08:18:39;;;;;;;9.47;2.57;;;;;;;;;;5020897;28;20180;-84
2023/03/23 08:21:08;;;;;;;6.47;2.70;;;;;;;;;;5041263;28;20180;-84
2023/03/23 08:23:34;;;;;;;10.70;2.53;;;;;;;;;;5017715;28;20271;-84
2023/03/23 08:26:01;;;;;;;8.13;2.60;;;;;;;;;;5044483;28;20180;-84
2023/03/23 08:28:27;;;;;;;7.07;2.80;;;;;;;;;;5013868;28;20188;-84
2023/03/23 08:30:54;;;;;;;7.90;2.47;;;;;;;;;;5054392;28;20198;-84
2023/03/23 08:33:21;;;;;;;8.73;2.87;;;;;;;;;;5053153;28;20184;-85
2023/03/23 08:35:54;;;;;;;8.13;2.63;;;;;;;;;;5014661;28;20307;-85
2023/03/23 08:38:21;;;;;;;7.07;2.93;;;;;;;;;;5031575;28;20187;-84
2023/03/23 08:40:47;;;;;;;11.63;3.20;;;;;;;;;;5019851;28;20256;-84
2023/03/23 08:43:15;;;;;;;8.47;2.93;;;;;;;;;;5036378;28;20238;-84
2023/03/23 08:45:41;;;;;;;6.17;3.10;;;;;;;;;;5036413;28;20247;-84
2023/03/23 08:48:08;;;;;;;8.00;2.83;;;;;;;;;;5036692;28;20176;-85
2023/03/23 08:50:35;;;;;;;9.33;3.00;;;;;;;;;;5034783;28;20184;-85
2023/03/23 08:53:01;;;;;;;5.73;2.80;;;;;;;;;;5032164;28;20208;-84
2023/03/23 08:55:28;;;;;;;7.90;3.03;;;;;;;;;;5000825;28;20184;-84
2023/03/23 08:57:54;;;;;;;8.13;2.70;;;;;;;;;;5022154;28;20195;-84
2023/03/23 09:00:23;;;;;;;6.77;2.60;;;;;;;;;;5019848;28;20187;-85
2023/03/23 09:02:50;;;;;;;4.73;2.20;;;;;;;;;;5035859;28;20191;-86
2023/03/23 09:05:17;;;;;;;4.57;2.40;;;;;;;;;;5036257;28;20213;-85
2023/03/23 09:07:45;;;;;;;6.60;2.37;;;;;;;;;;5034988;28;20179;-85
2023/03/23 09:10:12;;;;;;;5.93;2.30;;;;;;;;;;5034772;28;20184;-85
2023/03/23 09:12:39;;;;;;;4.27;1.90;;;;;;;;;;5036442;28;20253;-87
2023/03/23 09:15:08;;;;;;;3.97;1.90;;;;;;;;;;5036397;28;20189;-86
2023/03/23 09:17:34;;;;;;;6.63;2.00;;;;;;;;;;5053936;28;20227;-86
2023/03/23 09:20:00;;;;;;;4.27;1.87;;;;;;;;;;5036262;28;20180;-85
2023/03/23 09:22:26;;;;;;;4.87;1.97;;;;;;;;;;5020080;28;20267;-85
2023/03/23 09:24:52;;;;;;;6.93;1.90;;;;;;;;;;5018146;28;20261;-86
2023/03/23 09:27:19;;;;;;;4.47;1.77;;;;;;;;;;5016670;28;20231;-86
2023/03/23 09:29:46;;;;;;;3.17;1.60;;;;;;;;;;5016636;28;20177;-85
2023/03/23 09:32:13;;;;;;;2.73;1.50;;;;;;;;;;5022352;28;20183;-86
2023/03/23 09:34:39;;;;;;;3.80;1.47;;;;;;;;;;5023948;28;20180;-85
2023/03/23 09:37:06;;;;;;;5.27;1.77;;;;;;;;;;5039837;28;20208;-86
2023/03/23 09:39:32;;;;;;;4.67;1.60;;;;;;;;;;5039620;28;20176;-86
2023/03/23 09:42:02;;;;;;;6.57;1.70;;;;;;;;;;5022342;28;20188;-85
2023/03/23 09:44:38;;;;;;;6.77;1.90;;;;;;;;;;5019887;28;20236;-85
2023/03/23 09:47:14;;;;;;;5.07;1.73;;;;;;;;;;5037901;28;20191;-85
2023/03/23 09:49:46;;;;;;;6.90;2.07;;;;;;;;;;5057605;28;20182;-85
2023/03/23 09:52:14;;;;;;;6.53;2.07;;;;;;;;;;5039490;28;20184;-85
2023/03/23 09:54:43;;;;;;;4.70;2.20;;;;;;;;;;5053129;28;20229;-79
2023/03/23 09:57:16;;;;;;;9.53;2.27;;;;;;;;;;5039159;28;20223;-79
2023/03/23 09:59:47;;;;;;;6.97;1.93;;;;;;;;;;5039288;28;20222;-79
2023/03/23 10:02:15;;;;;;;5.63;2.10;;;;;;;;;;5023434;28;20280;-80
2023/03/23 10:04:54;;;;;;;5.20;2.07;;;;;;;;;;5020487;28;20220;-79
2023/03/23 10:07:22;;;;;;;7.47;2.40;;;;;;;;;;5039161;28;20195;-80
2023/03/23 10:09:50;;;;;;;6.87;1.90;;;;;;;;;;5056250;28;20183;-80
2023/03/23 10:12:16;;;;;;;8.50;2.27;;;;;;;;;;5037164;28;20271;-80
2023/03/23 10:15:20;;;;;;;8.67;2.33;;;;;;;;;;5019403;28;20694;-80
2023/03/23 10:18:02;;;;;;;11.23;2.83;;;;;;;;;;4976208;28;20284;-81
2023/03/23 10:20:32;;;;;;;6.70;2.30;;;;;;;;;;4959051;28;20183;-80
2023/03/23 10:23:01;;;;;;;7.27;2.40;;;;;;;;;;4995727;28;20284;-81
2023/03/23 10:25:30;;;;;;;7.50;2.37;;;;;;;;;;5018772;28;20181;-80
2023/03/23 10:28:03;;;;;;;6.30;2.50;;;;;;;;;;5039323;28;20181;-86
2023/03/23 10:30:37;;;;;;;7.60;2.10;;;;;;;;;;5039177;28;20233;-85
2023/03/23 10:33:13;;;;;;;8.43;2.60;;;;;;;;;;5056463;28;20174;-85
2023/03/23 10:35:53;;;;;;;8.00;2.33;;;;;;;;;;5038836;28;20211;-85
2023/03/23 10:38:25;;;;;;;10.00;2.83;;;;;;;;;;5036879;28;20179;-87
2023/03/23 10:41:02;;;;;;;7.73;2.60;;;;;;;;;;5038579;28;20187;-87
2023/03/23 10:43:29;;;;;;;7.57;2.83;;;;;;;;;;5054534;28;20263;-87
2023/03/23 10:45:57;;;;;;;10.43;2.70;;;;;;;;;;5037370;28;20187;-86
2023/03/23 10:48:29;;;;;;;8.67;2.77;;;;;;;;;;5037761;28;20199;-86
2023/03/23 10:50:57;;;;;;;9.03;2.80;;;;;;;;;;5056190;28;20180;-85
2023/03/23 10:53:25;;;;;;;8.10;2.63;;;;;;;;;;5038272;28;20270;-86
2023/03/23 10:55:53;;;;;;;12.70;3.00;;;;;;;;;;5033450;28;20177;-85
2023/03/23 10:58:24;;;;;;;8.80;2.53;;;;;;;;;;5002696;28;20187;-86
2023/03/23 11:00:50;;;;;;;12.50;3.30;;;;;;;;;;5036098;28;20173;-86
2023/03/23 11:03:17;;;;;;;8.63;2.57;;;;;;;;;;5029006;28;20237;-87
2023/03/23 11:05:51;;;;;;;8.87;2.63;;;;;;;;;;5045827;28;20190;-87
2023/03/23 11:08:21;;;;;;;10.10;2.70;;;;;;;;;;5034704;28;20230;-87
2023/03/23 11:10:50;;;;;;;7.43;2.63;;;;;;;;;;5038133;28;20268;-88
2023/03/23 11:13:17;;;;;;;11.40;2.90;;;;;;;;;;5058172;28;20203;-85
2023/03/23 11:15:46;;;;;;;6.70;2.60;;;;;;;;;;5075312;28;20175;-86
2023/03/23 11:18:12;;;;;;;7.70;2.77;;;;;;;;;;5039266;28;20176;-86
2023/03/23 11:20:41;;;;;;;7.20;2.60;;;;;;;;;;5057932;28;20244;-86
2023/03/23 11:23:22;;;;;;;10.10;2.83;;;;;;;;;;5058511;28;20229;-85
2023/03/23 11:26:07;;;;;;;8.97;2.80;;;;;;;;;;5054008;28;20180;-86
2023/03/23 11:28:35;;;;;;;8.07;2.77;;;;;;;;;;5039525;28;20237;-85
2023/03/23 11:31:03;;;;;;;9.67;2.93;;;;;;;;;;5057408;28;20221;-85
2023/03/23 11:33:31;;;;;;;10.30;2.80;;;;;;;;;;5040361;28;20187;-80
2023/03/23 11:35:58;;;;;;;6.17;2.30;;;;;;;;;;5054642;28;20195;-80
2023/03/23 11:38:27;;;;;;;5.13;2.60;;;;;;;;;;5017738;28;20220;-80
2023/03/23 11:40:54;;;;;;;5.77;2.50;;;;;;;;;;5018618;28;20181;-81
2023/03/23 11:43:24;;;;;;;8.37;2.27;;;;;;;;;;5017991;28;20235;-80
2023/03/23 11:46:02;;;;;;;8.67;2.90;;;;;;;;;;5017764;28;20204;-80
2023/03/23 11:48:41;;;;;;;7.53;2.47;;;;;;;;;;5017569;28;20184;-80
2023/03/23 11:51:33;;;;;;;7.87;2.50;;;;;;;;;;5061394;28;20178;-80
2023/03/23 11:54:05;;;;;;;7.93;2.77;;;;;;;;;;5053302;28;20202;-80
2023/03/23 11:56:34;;;;;;;11.17;2.57;;;;;;;;;;5026034;28;20242;-80
2023/03/23 11:59:03;;;;;;;8.13;2.80;;;;;;;;;;5035397;28;20266;-80
2023/03/23 12:01:29;;;;;;;7.73;2.67;;;;;;;;;;5037423;28;20176;-80
2023/03/23 12:04:11;;;;;;;8.77;2.60;;;;;;;;;;5035074;28;20217;-80
2023/03/23 12:06:37;;;;;;;8.47;2.63;;;;;;;;;;5037228;28;20186;-80
2023/03/23 12:09:10;;;;;;;7.60;3.00;;;;;;;;;;5036765;28;20187;-80
2023/03/23 12:11:36;;;;;;;10.90;3.10;;;;;;;;;;5046168;28;20183;-80
2023/03/23 12:14:15;;;;;;;9.53;3.70;;;;;;;;;;5037602;28;20191;-79
2023/03/23 12:16:49;;;;;;;7.20;3.10;;;;;;;;;;5053980;28;20215;-80
2023/03/23 12:19:27;;;;;;;8.07;3.30;;;;;;;;;;5036726;28;20190;-79
2023/03/23 12:22:05;;;;;;;10.60;3.27;;;;;;;;;;5022925;28;20235;-79
2023/03/23 12:24:32;;;;;;;9.23;3.50;;;;;;;;;;5024826;28;20183;-79
2023/03/23 12:27:07;;;;;;;6.90;3.53;;;;;;;;;;5036820;28;20187;-79
2023/03/23 12:29:33;;;;;;;10.57;3.83;;;;;;;;;;5036423;28;20179;-79
2023/03/23 12:32:20;;;;;;;8.37;3.27;;;;;;;;;;5017989;28;20192;-80
2023/03/23 12:35:05;;;;;;;11.53;3.67;;;;;;;;;;5016865;28;20185;-80
2023/03/23 12:37:31;;;;;;;7.70;3.60;;;;;;;;;;5030872;28;20226;-80
2023/03/23 12:40:17;;;;;;;9.53;3.30;;;;;;;;;;5036335;28;20183;-80
2023/03/23 12:42:55;;;;;;;11.23;3.50;;;;;;;;;;5039493;28;20180;-81
2023/03/23 12:45:27;;;;;;;7.73;3.40;;;;;;;;;;5029439;28;20183;-81
2023/03/23 12:48:07;;;;;;;7.77;3.30;;;;;;;;;;5036639;28;20176;-80
2023/03/23 12:50:36;;;;;;;5.43;3.10;;;;;;;;;;5036621;28;20179;-81
2023/03/23 12:53:14;;;;;;;5.40;2.73;;;;;;;;;;5036272;28;20234;-80
2023/03/23 12:55:45;;;;;;;7.17;3.20;;;;;;;;;;5036217;28;20188;-80
2023/03/23 12:58:19;;;;;;;6.33;2.20;;;;;;;;;;5035481;28;20196;-89
2023/03/23 13:00:58;;;;;;;7.07;2.33;;;;;;;;;;5036329;28;20179;-85
2023/03/23 13:03:34;;;;;;;7.53;2.57;;;;;;;;;;5039393;28;20234;-87
2023/03/23 13:06:15;;;;;;;6.47;2.40;;;;;;;;;;5017113;28;20183;-87
2023/03/23 13:08:49;;;;;;;6.67;2.70;;;;;;;;;;5038661;28;20202;-86
2023/03/23 13:11:19;;;;;;;5.60;2.43;;;;;;;;;;5039715;28;20176;-87
2023/03/23 13:13:47;;;;;;;7.33;3.40;;;;;;;;;;5040185;28;20175;-86
2023/03/23 13:16:28;;;;;;;19.33;9.20;;;;;;;;;;5038253;28;20219;-86
2023/03/23 13:19:02;;;;;;;9.93;4.87;;;;;;;;;;5037992;28;20175;-86
2023/03/23 13:21:32;;;;;;;8.35;3.28;;;;;;;;;;5038101;28;20419;-86
2023/03/23 13:24:09;;;;;;;8.37;3.23;;;;;;;;;;5040159;28;20194;-86
2023/03/23 13:26:40;;;;;;;6.83;2.97;;;;;;;;;;5040004;28;20179;-86
2023/03/23 13:29:21;;;;;;;8.17;3.40;;;;;;;;;;5023446;28;20402;-86
2023/03/23 13:31:49;;;;;;;9.67;3.90;;;;;;;;;;5039428;28;20186;-81
2023/03/23 13:34:26;;;;;;;15.30;6.83;;;;;;;;;;5019283;28;20184;-81
2023/03/23 13:37:24;;;;;;;7.87;3.33;;;;;;;;;;5036328;28;20208;-81
2023/03/23 13:39:56;;;;;;;13.20;7.47;;;;;;;;;;4987724;28;20191;-81
2023/03/23 13:42:25;;;;;;;9.03;2.90;;;;;;;;;;5024964;28;20172;-81
2023/03/23 13:44:51;;;;;;;8.03;4.10;;;;;;;;;;5019647;28;20211;-81
2023/03/23 13:47:17;;;;;;;7.77;2.90;;;;;;;;;;5019873;28;20176;-87
2023/03/23 13:49:55;;;;;;;6.93;2.67;;;;;;;;;;5038367;28;20168;-87
2023/03/23 13:52:25;;;;;;;6.50;2.27;;;;;;;;;;5038988;28;20168;-87
2023/03/23 13:54:51;;;;;;;7.33;3.03;;;;;;;;;;5033678;28;20176;-87
2023/03/23 13:57:33;;;;;;;4.97;2.40;;;;;;;;;;5036788;28;20201;-86
2023/03/23 14:00:09;;;;;;;6.50;2.60;;;;;;;;;;5035969;28;20181;-87
2023/03/23 14:02:42;;;;;;;6.30;2.87;;;;;;;;;;5025667;28;20222;-87
2023/03/23 14:05:17;;;;;;;7.80;3.07;;;;;;;;;;5019120;28;20223;-81
2023/03/23 14:07:54;;;;;;;12.60;7.67;;;;;;;;;;5020128;28;20225;-82
2023/03/23 14:10:21;;;;;;;6.00;2.83;;;;;;;;;;5038871;28;20176;-82
2023/03/23 14:12:50;;;;;;;6.63;2.60;;;;;;;;;;5038634;28;20176;-82
2023/03/23 14:15:17;;;;;;;7.07;2.67;;;;;;;;;;5038775;28;20259;-81
2023/03/23 14:17:44;;;;;;;5.47;2.47;;;;;;;;;;5054742;28;20214;-82
2023/03/23 14:20:20;;;;;;;6.77;2.40;;;;;;;;;;5038341;28;20237;-87
2023/03/23 14:22:46;;;;;;;8.87;3.17;;;;;;;;;;5038548;28;20180;-87
2023/03/23 14:25:17;;;;;;;6.60;3.33;;;;;;;;;;5039055;28;20184;-87
2023/03/23 14:27:45;;;;;;;8.20;3.90;;;;;;;;;;5038689;28;20187;-87
2023/03/23 14:30:34;;;;;;;8.70;3.80;;;;;;;;;;5038535;28;20183;-87
2023/03/23 14:33:06;;;;;;;8.03;3.07;;;;;;;;;;5055597;28;20237;-87
2023/03/23 14:35:33;;;;;;;5.33;3.07;;;;;;;;;;5038422;28;20192;-87
2023/03/23 14:37:59;;;;;;;6.73;2.93;;;;;;;;;;5038419;28;20211;-81
2023/03/23 14:40:29;;;;;;;7.10;3.47;;;;;;;;;;5037992;28;20187;-81
2023/03/23 14:42:56;;;;;;;6.43;3.27;;;;;;;;;;5038515;28;20183;-81
2023/03/23 14:45:23;;;;;;;6.63;3.13;;;;;;;;;;5056091;28;20243;-81
2023/03/23 14:47:53;;;;;;;9.27;3.50;;;;;;;;;;5021852;28;20213;-81
2023/03/23 14:50:28;;;;;;;7.80;3.43;;;;;;;;;;5055784;28;20273;-81
2023/03/23 14:52:56;;;;;;;7.37;2.80;;;;;;;;;;5037569;28;20237;-81